sensor_id;sensor_type;location;lat;lon;timestamp;pressure;altitude;pressure_sealevel;temperature;humidity
9439;BME280;5176;42.622;25.386;2023-05-03T16:59:16;97557.81;;;16.42;41.26
9439;BME280;5176;42.622;25.386;2023-05-03T17:01:44;97563.69;;;16.46;40.79
9439;BME280;5176;42.622;25.386;2023-05-03T17:04:13;97546.06;;;16.35;41.20
9439;BME280;5176;42.622;25.386;2023-05-03T17:06:41;97574.16;;;16.47;41.18
9439;BME280;5176;42.622;25.386;2023-05-03T17:09:10;97589.31;;;16.45;41.14
9439;BME280;5176;42.622;25.386;2023-05-03T17:11:39;97598.81;;;16.48;41.00
9439;BME280;5176;42.622;25.386;2023-05-03T17:14:08;97588.13;;;16.38;40.54
9439;BME280;5176;42.622;25.386;2023-05-03T17:16:40;97593.63;;;16.46;40.60
9439;BME280;5176;42.622;25.386;2023-05-03T17:19:10;97604.31;;;16.45;40.36
9439;BME280;5176;42.622;25.386;2023-05-03T17:21:39;97605.44;;;16.42;39.06
9439;BME280;5176;42.622;25.386;2023-05-03T17:24:07;97619.78;;;16.28;40.02
9439;BME280;5176;42.622;25.386;2023-05-03T17:26:37;97620.53;;;16.19;39.87
9439;BME280;5176;42.622;25.386;2023-05-03T17:29:06;97609.13;;;16.19;39.59
9439;BME280;5176;42.622;25.386;2023-05-03T17:31:35;97577.59;;;16.16;40.76
9439;BME280;5176;42.622;25.386;2023-05-03T17:34:05;97589.91;;;16.05;39.86
9439;BME280;5176;42.622;25.386;2023-05-03T17:36:35;97602.66;;;16.00;38.21
9439;BME280;5176;42.622;25.386;2023-05-03T17:39:03;97607.59;;;15.83;37.87
9439;BME280;5176;42.622;25.386;2023-05-03T17:41:34;97620.81;;;15.83;37.56
9439;BME280;5176;42.622;25.386;2023-05-03T17:44:05;97622.13;;;15.77;37.81
9439;BME280;5176;42.622;25.386;2023-05-03T17:46:33;97624.78;;;15.77;37.98
9439;BME280;5176;42.622;25.386;2023-05-03T17:49:02;97632.94;;;15.63;39.47
9439;BME280;5176;42.622;25.386;2023-05-03T17:51:32;97589.66;;;15.41;40.22
9439;BME280;5176;42.622;25.386;2023-05-03T17:54:01;97643.03;;;15.69;39.10
9439;BME280;5176;42.622;25.386;2023-05-03T17:56:30;97655.38;;;15.46;40.13
9439;BME280;5176;42.622;25.386;2023-05-03T17:58:59;97650.44;;;15.52;41.84
9439;BME280;5176;42.622;25.386;2023-05-03T18:01:27;97669.16;;;15.38;42.05
9439;BME280;5176;42.622;25.386;2023-05-03T18:03:56;97681.03;;;15.44;42.55
9439;BME280;5176;42.622;25.386;2023-05-03T18:06:25;97691.63;;;15.55;42.09
9439;BME280;5176;42.622;25.386;2023-05-03T18:08:56;97714.44;;;15.45;42.09
9439;BME280;5176;42.622;25.386;2023-05-03T18:11:25;97726.13;;;15.53;41.94
9439;BME280;5176;42.622;25.386;2023-05-03T18:13:53;97699.81;;;15.52;41.21
9439;BME280;5176;42.622;25.386;2023-05-03T18:16:22;97702.88;;;15.35;42.20
9439;BME280;5176;42.622;25.386;2023-05-03T18:18:51;97700.38;;;15.33;45.11
9439;BME280;5176;42.622;25.386;2023-05-03T18:21:20;97704.19;;;15.29;45.72
9439;BME280;5176;42.622;25.386;2023-05-03T18:23:49;97690.34;;;15.14;47.65
9439;BME280;5176;42.622;25.386;2023-05-03T18:26:19;97705.81;;;15.08;48.33
9439;BME280;5176;42.622;25.386;2023-05-03T18:28:48;97701.03;;;15.13;48.49
9439;BME280;5176;42.622;25.386;2023-05-03T18:31:17;97715.78;;;15.15;48.50
9439;BME280;5176;42.622;25.386;2023-05-03T18:33:47;97711.59;;;15.13;50.89
9439;BME280;5176;42.622;25.386;2023-05-03T18:36:16;97707.66;;;15.18;53.78
9439;BME280;5176;42.622;25.386;2023-05-03T18:38:44;97691.56;;;15.21;52.71
9439;BME280;5176;42.622;25.386;2023-05-03T18:41:14;97689.25;;;15.17;53.06
9439;BME280;5176;42.622;25.386;2023-05-03T18:43:45;97696.97;;;15.20;56.20
9439;BME280;5176;42.622;25.386;2023-05-03T18:46:16;97696.97;;;15.20;53.51
9439;BME280;5176;42.622;25.386;2023-05-03T18:48:46;97713.53;;;15.22;54.13
9439;BME280;5176;42.622;25.386;2023-05-03T18:51:14;97710.78;;;15.23;57.24
9439;BME280;5176;42.622;25.386;2023-05-03T18:53:43;97717.84;;;15.23;55.38
9439;BME280;5176;42.622;25.386;2023-05-03T18:56:12;97715.91;;;15.14;55.20
9439;BME280;5176;42.622;25.386;2023-05-03T18:58:39;97719.84;;;15.08;56.17
9439;BME280;5176;42.622;25.386;2023-05-03T19:01:12;97704.06;;;14.95;53.21
9439;BME280;5176;42.622;25.386;2023-05-03T19:03:40;97700.88;;;14.79;55.75
9439;BME280;5176;42.622;25.386;2023-05-03T19:06:09;97701.34;;;14.73;57.48
9439;BME280;5176;42.622;25.386;2023-05-03T19:08:38;97664.19;;;14.52;55.98
9439;BME280;5176;42.622;25.386;2023-05-03T19:11:10;97697.56;;;14.64;57.76
9439;BME280;5176;42.622;25.386;2023-05-03T19:13:40;97711.38;;;14.68;60.06
9439;BME280;5176;42.622;25.386;2023-05-03T19:16:12;97707.50;;;14.61;64.42
9439;BME280;5176;42.622;25.386;2023-05-03T19:18:41;97710.25;;;14.59;63.38
9439;BME280;5176;42.622;25.386;2023-05-03T19:21:11;97719.03;;;14.60;62.58
9439;BME280;5176;42.622;25.386;2023-05-03T19:23:43;97726.81;;;14.61;60.61
9439;BME280;5176;42.622;25.386;2023-05-03T19:26:12;97716.25;;;14.61;58.30
9439;BME280;5176;42.622;25.386;2023-05-03T19:28:40;97712.72;;;14.37;56.49
9439;BME280;5176;42.622;25.386;2023-05-03T19:31:09;97721.38;;;14.39;57.37
9439;BME280;5176;42.622;25.386;2023-05-03T19:33:39;97731.16;;;14.37;62.50
9439;BME280;5176;42.622;25.386;2023-05-03T19:36:11;97737.53;;;14.22;59.87
9439;BME280;5176;42.622;25.386;2023-05-03T19:38:40;97735.22;;;14.17;60.61
9439;BME280;5176;42.622;25.386;2023-05-03T19:41:09;97729.88;;;14.06;60.85
9439;BME280;5176;42.622;25.386;2023-05-03T19:43:40;97737.38;;;13.86;60.22
9439;BME280;5176;42.622;25.386;2023-05-03T19:46:09;97730.09;;;13.77;60.22
9439;BME280;5176;42.622;25.386;2023-05-03T19:48:40;97717.97;;;13.62;61.88
9439;BME280;5176;42.622;25.386;2023-05-03T19:51:12;97714.81;;;13.57;62.22
9439;BME280;5176;42.622;25.386;2023-05-03T19:53:41;97705.75;;;13.61;63.48
9439;BME280;5176;42.622;25.386;2023-05-03T19:56:09;97696.69;;;13.65;63.86
9439;BME280;5176;42.622;25.386;2023-05-03T19:58:38;97705.22;;;13.69;64.58
9439;BME280;5176;42.622;25.386;2023-05-03T20:01:07;97701.22;;;13.76;63.89
9439;BME280;5176;42.622;25.386;2023-05-03T20:03:36;97692.81;;;13.58;65.20
9439;BME280;5176;42.622;25.386;2023-05-03T20:06:07;97696.81;;;13.38;69.65
9439;BME280;5176;42.622;25.386;2023-05-03T20:08:36;97689.19;;;13.33;68.97
9439;BME280;5176;42.622;25.386;2023-05-03T20:11:05;97693.94;;;13.41;70.29
9439;BME280;5176;42.622;25.386;2023-05-03T20:13:33;97693.81;;;13.30;69.74
9439;BME280;5176;42.622;25.386;2023-05-03T20:16:03;97697.72;;;13.37;69.40
9439;BME280;5176;42.622;25.386;2023-05-03T20:18:34;97686.34;;;13.36;66.58
9439;BME280;5176;42.622;25.386;2023-05-03T20:21:02;97685.44;;;13.38;65.44
9439;BME280;5176;42.622;25.386;2023-05-03T20:23:33;97690.34;;;13.42;65.42
9439;BME280;5176;42.622;25.386;2023-05-03T20:26:02;97692.88;;;13.44;65.42
9439;BME280;5176;42.622;25.386;2023-05-03T20:28:31;97693.66;;;13.46;67.70
9439;BME280;5176;42.622;25.386;2023-05-03T20:31:00;97690.59;;;13.52;67.09
9439;BME280;5176;42.622;25.386;2023-05-03T20:33:30;97683.19;;;13.57;69.42
9439;BME280;5176;42.622;25.386;2023-05-03T20:35:58;97683.94;;;13.59;69.42
9439;BME280;5176;42.622;25.386;2023-05-03T20:38:28;97683.66;;;13.51;67.91
9439;BME280;5176;42.622;25.386;2023-05-03T20:40:58;97672.34;;;13.49;69.10
9439;BME280;5176;42.622;25.386;2023-05-03T20:43:26;97680.13;;;13.50;68.94
9439;BME280;5176;42.622;25.386;2023-05-03T20:45:55;97690.66;;;13.50;69.16
9439;BME280;5176;42.622;25.386;2023-05-03T20:48:25;97698.59;;;13.38;68.75
9439;BME280;5176;42.622;25.386;2023-05-03T20:50:54;97684.38;;;13.40;69.46
9439;BME280;5176;42.622;25.386;2023-05-03T20:53:24;97673.19;;;13.36;70.61
9439;BME280;5176;42.622;25.386;2023-05-03T20:55:55;97689.63;;;13.53;69.58
9439;BME280;5176;42.622;25.386;2023-05-03T20:58:26;97669.94;;;13.58;69.07
9439;BME280;5176;42.622;25.386;2023-05-03T21:00:54;97661.19;;;13.45;70.10
9439;BME280;5176;42.622;25.386;2023-05-03T21:03:24;97665.91;;;13.27;71.01
9439;BME280;5176;42.622;25.386;2023-05-03T21:05:52;97670.13;;;13.30;72.03
9439;BME280;5176;42.622;25.386;2023-05-03T21:08:22;97680.34;;;13.34;71.09
9439;BME280;5176;42.622;25.386;2023-05-03T21:10:51;97680.16;;;13.38;69.66
9439;BME280;5176;42.622;25.386;2023-05-03T21:13:19;97681.44;;;13.45;69.56
9439;BME280;5176;42.622;25.386;2023-05-03T21:15:50;97681.94;;;13.50;71.64
9439;BME280;5176;42.622;25.386;2023-05-03T21:18:19;97677.31;;;13.41;73.12
9439;BME280;5176;42.622;25.386;2023-05-03T21:20:47;97674.78;;;13.39;74.59
9439;BME280;5176;42.622;25.386;2023-05-03T21:23:16;97682.25;;;13.45;74.57
9439;BME280;5176;42.622;25.386;2023-05-03T21:25:45;97684.56;;;13.50;73.52
9439;BME280;5176;42.622;25.386;2023-05-03T21:28:14;97685.75;;;13.46;73.88
9439;BME280;5176;42.622;25.386;2023-05-03T21:30:43;97682.25;;;13.45;75.96
9439;BME280;5176;42.622;25.386;2023-05-03T21:33:15;97682.34;;;13.44;76.48
9439;BME280;5176;42.622;25.386;2023-05-03T21:35:44;97673.94;;;13.39;74.55
9439;BME280;5176;42.622;25.386;2023-05-03T21:38:13;97683.31;;;13.43;76.92
9439;BME280;5176;42.622;25.386;2023-05-03T21:40:43;97680.88;;;13.40;75.12
9439;BME280;5176;42.622;25.386;2023-05-03T21:43:13;97677.94;;;13.44;76.52
9439;BME280;5176;42.622;25.386;2023-05-03T21:45:43;97664.56;;;13.47;76.90
9439;BME280;5176;42.622;25.386;2023-05-03T21:48:12;97670.53;;;13.36;76.28
9439;BME280;5176;42.622;25.386;2023-05-03T21:50:43;97664.56;;;13.34;76.57
9439;BME280;5176;42.622;25.386;2023-05-03T21:53:12;97668.44;;;13.29;78.58
9439;BME280;5176;42.622;25.386;2023-05-03T21:55:41;97659.16;;;13.23;78.10
9439;BME280;5176;42.622;25.386;2023-05-03T21:58:09;97657.34;;;13.11;80.07
9439;BME280;5176;42.622;25.386;2023-05-03T22:00:38;97648.56;;;12.85;79.51
9439;BME280;5176;42.622;25.386;2023-05-03T22:03:08;97685.53;;;12.69;80.26
9439;BME280;5176;42.622;25.386;2023-05-03T22:05:37;97681.00;;;12.32;83.46
9439;BME280;5176;42.622;25.386;2023-05-03T22:08:08;97691.22;;;12.22;86.17
9439;BME280;5176;42.622;25.386;2023-05-03T22:10:40;97678.47;;;12.16;88.61
9439;BME280;5176;42.622;25.386;2023-05-03T22:13:09;97675.84;;;12.16;90.05
9439;BME280;5176;42.622;25.386;2023-05-03T22:15:37;97669.38;;;12.07;89.25
9439;BME280;5176;42.622;25.386;2023-05-03T22:18:06;97678.88;;;11.95;89.75
9439;BME280;5176;42.622;25.386;2023-05-03T22:20:36;97674.09;;;11.88;91.55
9439;BME280;5176;42.622;25.386;2023-05-03T22:23:07;97675.25;;;11.84;91.99
9439;BME280;5176;42.622;25.386;2023-05-03T22:25:37;97662.75;;;11.87;92.84
9439;BME280;5176;42.622;25.386;2023-05-03T22:28:06;97655.53;;;11.91;93.02
9439;BME280;5176;42.622;25.386;2023-05-03T22:30:35;97645.56;;;11.96;92.72
9439;BME280;5176;42.622;25.386;2023-05-03T22:33:03;97651.56;;;12.12;92.22
9439;BME280;5176;42.622;25.386;2023-05-03T22:35:32;97653.22;;;12.13;91.67
9439;BME280;5176;42.622;25.386;2023-05-03T22:38:01;97652.19;;;12.16;91.92
9439;BME280;5176;42.622;25.386;2023-05-03T22:40:32;97647.00;;;12.28;91.72
9439;BME280;5176;42.622;25.386;2023-05-03T22:43:01;97646.22;;;12.41;89.57
9439;BME280;5176;42.622;25.386;2023-05-03T22:45:30;97635.19;;;12.48;89.13
9439;BME280;5176;42.622;25.386;2023-05-03T22:47:59;97636.59;;;12.54;86.62
9439;BME280;5176;42.622;25.386;2023-05-03T22:50:27;97625.13;;;12.55;87.04
9439;BME280;5176;42.622;25.386;2023-05-03T22:52:56;97622.94;;;12.62;86.45
9439;BME280;5176;42.622;25.386;2023-05-03T22:55:26;97628.84;;;12.65;86.72
9439;BME280;5176;42.622;25.386;2023-05-03T22:57:56;97623.25;;;12.70;86.03
9439;BME280;5176;42.622;25.386;2023-05-03T23:00:25;97617.91;;;12.71;85.84
9439;BME280;5176;42.622;25.386;2023-05-03T23:02:53;97610.75;;;12.73;86.13
9439;BME280;5176;42.622;25.386;2023-05-03T23:05:22;97603.69;;;12.74;86.03
9439;BME280;5176;42.622;25.386;2023-05-03T23:07:51;97598.66;;;12.71;85.56
9439;BME280;5176;42.622;25.386;2023-05-03T23:10:20;97601.78;;;12.50;87.50
9439;BME280;5176;42.622;25.386;2023-05-03T23:12:49;97600.38;;;12.45;88.14
9439;BME280;5176;42.622;25.386;2023-05-03T23:15:20;97608.97;;;12.34;89.78
9439;BME280;5176;42.622;25.386;2023-05-03T23:17:50;97595.88;;;12.20;91.72
9439;BME280;5176;42.622;25.386;2023-05-03T23:20:19;97602.91;;;12.19;93.31
9439;BME280;5176;42.622;25.386;2023-05-03T23:22:48;97592.28;;;12.21;92.64
9439;BME280;5176;42.622;25.386;2023-05-03T23:25:17;97580.31;;;12.30;92.31
9439;BME280;5176;42.622;25.386;2023-05-03T23:27:46;97578.97;;;12.37;93.00
9439;BME280;5176;42.622;25.386;2023-05-03T23:30:14;97568.56;;;12.35;92.69
9439;BME280;5176;42.622;25.386;2023-05-03T23:32:46;97570.22;;;12.23;92.96
9439;BME280;5176;42.622;25.386;2023-05-03T23:35:15;97569.31;;;12.24;93.01
9439;BME280;5176;42.622;25.386;2023-05-03T23:37:44;97551.13;;;12.34;93.17
9439;BME280;5176;42.622;25.386;2023-05-03T23:40:12;97548.09;;;12.40;93.35
9439;BME280;5176;42.622;25.386;2023-05-03T23:42:42;97557.56;;;12.43;93.18
9439;BME280;5176;42.622;25.386;2023-05-03T23:45:12;97550.50;;;12.43;93.09
9439;BME280;5176;42.622;25.386;2023-05-03T23:47:40;97564.09;;;12.50;93.86
9439;BME280;5176;42.622;25.386;2023-05-03T23:50:12;97564.41;;;12.45;93.14
9439;BME280;5176;42.622;25.386;2023-05-03T23:52:41;97556.41;;;12.47;93.71
9439;BME280;5176;42.622;25.386;2023-05-03T23:55:10;97538.97;;;12.46;93.05
9439;BME280;5176;42.622;25.386;2023-05-03T23:57:39;97540.94;;;12.42;93.52
